Map

Track Data

SID SEASON NUMBER BASIN SUBBASIN NAME ISO_TIME NATURE LAT LON WMO_WIND WMO_PRES WMO_AGENCY TRACK_TYPE DIST2LAND LANDFALL IFLAG USA_AGENCY USA_ATCF_ID USA_LAT USA_LON USA_RECORD USA_STATUS USA_WIND USA_PRES USA_SSHS USA_R34_NE USA_R34_SE USA_R34_SW USA_R34_NW USA_R50_NE USA_R50_SE USA_R50_SW USA_R50_NW USA_R64_NE USA_R64_SE USA_R64_SW USA_R64_NW USA_POCI USA_ROCI USA_RMW USA_EYE TOKYO_LAT TOKYO_LON TOKYO_GRADE TOKYO_WIND TOKYO_PRES TOKYO_R50_DIR TOKYO_R50_LONG TOKYO_R50_SHORT TOKYO_R30_DIR TOKYO_R30_LONG TOKYO_R30_SHORT TOKYO_LAND CMA_LAT CMA_LON CMA_CAT CMA_WIND CMA_PRES HKO_LAT HKO_LON HKO_CAT HKO_WIND HKO_PRES NEWDELHI_LAT NEWDELHI_LON NEWDELHI_GRADE NEWDELHI_WIND NEWDELHI_PRES NEWDELHI_CI NEWDELHI_DP NEWDELHI_POCI REUNION_LAT REUNION_LON REUNION_TYPE REUNION_WIND REUNION_PRES REUNION_TNUM REUNION_CI REUNION_RMW REUNION_R34_NE REUNION_R34_SE REUNION_R34_SW REUNION_R34_NW REUNION_R50_NE REUNION_R50_SE REUNION_R50_SW REUNION_R50_NW REUNION_R64_NE REUNION_R64_SE REUNION_R64_SW REUNION_R64_NW BOM_LAT BOM_LON BOM_TYPE BOM_WIND BOM_PRES BOM_TNUM BOM_CI BOM_RMW BOM_R34_NE BOM_R34_SE BOM_R34_SW BOM_R34_NW BOM_R50_NE BOM_R50_SE BOM_R50_SW BOM_R50_NW BOM_R64_NE BOM_R64_SE BOM_R64_SW BOM_R64_NW BOM_ROCI BOM_POCI BOM_EYE BOM_POS_METHOD BOM_PRES_METHOD NADI_LAT NADI_LON NADI_CAT NADI_WIND NADI_PRES WELLINGTON_LAT WELLINGTON_LON WELLINGTON_WIND WELLINGTON_PRES DS824_LAT DS824_LON DS824_STAGE DS824_WIND DS824_PRES TD9636_LAT TD9636_LON TD9636_STAGE TD9636_WIND TD9636_PRES TD9635_LAT TD9635_LON TD9635_WIND TD9635_PRES TD9635_ROCI NEUMANN_LAT NEUMANN_LON NEUMANN_CLASS NEUMANN_WIND NEUMANN_PRES MLC_LAT MLC_LON MLC_CLASS MLC_WIND MLC_PRES USA_GUST BOM_GUST BOM_GUST_PER REUNION_GUST REUNION_GUST_PER USA_SEAHGT USA_SEARAD_NE USA_SEARAD_SE USA_SEARAD_SW USA_SEARAD_NW STORM_SPEED STORM_DIR
1869091S11433 1869 8 SI MM NOT_NAMED 1869-03-31 18:00:00 NR -11.2000 72.6000 main 1879 1848 __________O___ -1 -11.2000 72.6000 7 12 178
1869091S11433 1869 8 SI MM NOT_NAMED 1869-03-31 21:00:00 NR -11.7813 72.6002 main 1842 1813 __________P___ -1 -11.7813 72.6002 7 12 179
1869091S11433 1869 8 SI MM NOT_NAMED 1869-04-01 00:00:00 NR -12.3500 72.6102 main 1807 1780 __________P___ -1 -12.3500 72.6102 7 11 178
1869091S11433 1869 8 SI MM NOT_NAMED 1869-04-01 03:00:00 NR -12.8938 72.6402 main 1780 1762 __________P___ -1 -12.8938 72.6402 7 11 175
1869091S11433 1869 8 SI MM NOT_NAMED 1869-04-01 06:00:00 NR -13.4000 72.7000 main 1762 1747 __________O___ -1 -13.4000 72.7000 7 10 171
1869091S11433 1869 8 SI MM NOT_NAMED 1869-04-01 09:00:00 NR -13.8593 72.7961 main 1746 1736 __________P___ -1 -13.8593 72.7961 7 9 166
1869091S11433 1869 8 SI MM NOT_NAMED 1869-04-01 12:00:00 NR -14.2750 72.9198 main 1737 1732 __________P___ -1 -14.2750 72.9198 7 8 162
1869091S11433 1869 8 SI MM NOT_NAMED 1869-04-01 15:00:00 NR -14.6531 73.0586 main 1738 1729 __________P___ -1 -14.6531 73.0586 7 8 159
1869091S11433 1869 8 SI MM NOT_NAMED 1869-04-01 18:00:00 NR -15.0000 73.2000 main 1735 1726 __________O___ -1 -15.0000 73.2000 7 5 165
1869091S11433 1869 8 SI MM NOT_NAMED 1869-04-01 21:00:00 NR -15.1652 73.1969 main 1726 1722 __________P___ -1 -15.1652 73.1969 7 3 176
1869091S11433 1869 8 SI MM NOT_NAMED 1869-04-02 00:00:00 NR -15.3280 73.2130 main 1722 1718 __________P___ -1 -15.3280 73.2130 7 5 163
1869091S11433 1869 8 SI MM NOT_NAMED 1869-04-02 03:00:00 NR -15.6268 73.3472 main 1721 1721 __________P___ -1 -15.6268 73.3472 7 10 152
1869091S11433 1869 8 SI MM NOT_NAMED 1869-04-02 06:00:00 NR -16.2000 73.7000 main 1739 1739 __________O___ -1 -16.2000 73.7000 7 19 150
1869091S11433 1869 8 SI MM NOT_NAMED 1869-04-02 09:00:00 NR -17.2686 74.3253 main 1768 1768 __________P___ -1 -17.2686 74.3253 7 28 149
1869091S11433 1869 8 SI MM NOT_NAMED 1869-04-02 12:00:00 NR -18.6036 75.1928 main 1833 1831 __________P___ -1 -18.6036 75.1928 7 33 146
1869091S11433 1869 8 SI MM NOT_NAMED 1869-04-02 15:00:00 NR -20.0366 76.2646 main 1930 1929 __________P___ -1 -20.0366 76.2646 7 36 142
1869091S11433 1869 8 SI MM NOT_NAMED 1869-04-02 18:00:00 NR -21.4000 77.5000 main 2049 2049 __________O___ -1 -21.4000 77.5000 7 35 136
1869091S11433 1869 8 SI MM NOT_NAMED 1869-04-02 21:00:00 NR -22.5653 78.8579 main 2196 2196 __________P___ -1 -22.5653 78.8579 7 34 130
1869091S11433 1869 8 SI MM NOT_NAMED 1869-04-03 00:00:00 NR -23.5510 80.3107 main 2346 2346 __________P___ -1 -23.5510 80.3107 7 33 124
1869091S11433 1869 8 SI MM NOT_NAMED 1869-04-03 03:00:00 NR -24.4113 81.8333 main 2506 2506 __________P___ -1 -24.4113 81.8333 7 33 120
1869091S11433 1869 8 SI MM NOT_NAMED 1869-04-03 06:00:00 NR -25.2000 83.4000 main 2676 __________O___ -1 -25.2000 83.4000 7 33 119

About IBTrACS Database

This database is a web-friendly format of International Best Track Archive for Climate Stewardship (IBTrACS), a global best track data archive curated by NOAA dating back to 1842.

Updated: 2021-11-26